Time;durP1;ratioP1;P1;durP2;ratioP2;P2;SDS_P1;SDS_P2;PMS_P1;PMS_P2;Temp;Humidity;BMP_temperature;BMP_pressure;BME280_temperature;BME280_humidity;BME280_pressure;Samples;Min_cycle;Max_cycle;Signal;HPM_P1;HPM_P2
2023/04/29 00:01:24;;;;;;;94.03;50.67;;;9.80;99.90;;;;;;5061895;28;20083;-73
2023/04/29 00:03:50;;;;;;;95.68;50.22;;;9.80;99.90;;;;;;5060596;28;20075;-74
2023/04/29 00:06:16;;;;;;;101.25;51.40;;;9.80;99.90;;;;;;5061301;28;20033;-75
2023/04/29 00:08:42;;;;;;;105.20;51.63;;;9.80;99.90;;;;;;5060777;28;20185;-74
2023/04/29 00:11:07;;;;;;;99.72;49.83;;;9.80;99.90;;;;;;5060361;28;20024;-74
2023/04/29 00:13:33;;;;;;;100.53;49.05;;;9.80;99.90;;;;;;5059710;28;20069;-74
2023/04/29 00:15:59;;;;;;;87.55;48.55;;;9.80;99.90;;;;;;5059993;28;20115;-73
2023/04/29 00:18:24;;;;;;;93.93;49.47;;;9.80;99.90;;;;;;5061453;28;20081;-74
2023/04/29 00:20:50;;;;;;;98.05;50.50;;;9.80;99.90;;;;;;5059880;28;20029;-74
2023/04/29 00:23:15;;;;;;;97.00;49.72;;;9.70;99.90;;;;;;5060368;28;20029;-73
2023/04/29 00:25:41;;;;;;;99.75;50.58;;;9.70;99.90;;;;;;5061024;28;20021;-73
2023/04/29 00:28:07;;;;;;;105.10;50.33;;;9.70;99.90;;;;;;5060112;28;20025;-72
2023/04/29 00:30:33;;;;;;;87.95;46.70;;;9.70;99.90;;;;;;5060096;28;20017;-74
2023/04/29 00:32:59;;;;;;;100.05;49.63;;;9.70;99.90;;;;;;5061288;28;20067;-74
2023/04/29 00:35:24;;;;;;;81.43;45.17;;;9.60;99.90;;;;;;5061533;28;20040;-74
2023/04/29 00:37:50;;;;;;;80.68;45.05;;;9.60;99.90;;;;;;5061291;28;20029;-74
2023/04/29 00:40:16;;;;;;;86.47;47.00;;;9.60;99.90;;;;;;5064847;28;20033;-74
2023/04/29 00:42:42;;;;;;;81.65;45.00;;;9.70;99.90;;;;;;5064267;28;20029;-74
2023/04/29 00:45:10;;;;;;;81.45;44.33;;;9.60;99.90;;;;;;5065010;28;20099;-73
2023/04/29 00:47:36;;;;;;;81.30;42.50;;;9.60;99.90;;;;;;5064540;28;20033;-74
2023/04/29 00:50:01;;;;;;;76.07;43.38;;;9.60;99.90;;;;;;5065182;28;20793;-73
2023/04/29 00:52:30;;;;;;;83.57;43.03;;;9.60;99.90;;;;;;5065166;28;20025;-74
2023/04/29 00:54:56;;;;;;;85.20;42.60;;;9.60;99.90;;;;;;5063237;28;20033;-73
2023/04/29 00:57:22;;;;;;;76.10;41.83;;;9.60;99.90;;;;;;5063569;28;20024;-74
2023/04/29 00:59:51;;;;;;;74.10;39.05;;;9.50;99.90;;;;;;5063505;28;20052;-72
2023/04/29 01:02:17;;;;;;;81.68;42.50;;;9.40;99.90;;;;;;5062995;28;20037;-75
2023/04/29 01:04:43;;;;;;;76.07;40.38;;;9.40;99.90;;;;;;5065099;28;20033;-74
2023/04/29 01:07:13;;;;;;;73.65;40.40;;;9.30;99.90;;;;;;5064029;28;20037;-74
2023/04/29 01:09:56;;;;;;;71.68;39.00;;;9.30;99.90;;;;;;5065017;28;20029;-74
2023/04/29 01:13:00;;;;;;;84.65;41.17;;;9.30;99.90;;;;;;5064902;28;20104;-75
2023/04/29 01:15:43;;;;;;;69.63;37.22;;;9.20;99.90;;;;;;5063696;28;20067;-73
2023/04/29 01:18:18;;;;;;;68.25;38.03;;;9.20;99.90;;;;;;5064391;28;20025;-74
2023/04/29 01:20:44;;;;;;;81.70;38.58;;;9.10;99.90;;;;;;5064481;28;20116;-74
2023/04/29 01:23:11;;;;;;;72.53;38.08;;;9.10;99.90;;;;;;5063761;28;20550;-74
2023/04/29 01:25:37;;;;;;;83.38;40.17;;;9.10;99.90;;;;;;5063635;28;20020;-75
2023/04/29 01:28:15;;;;;;;75.30;38.63;;;9.10;99.90;;;;;;5064362;28;20448;-73
2023/04/29 01:30:59;;;;;;;81.75;39.20;;;9.10;99.90;;;;;;5064260;28;20029;-73
2023/04/29 01:33:36;;;;;;;77.35;39.65;;;9.10;99.90;;;;;;5063537;28;20046;-74
2023/04/29 01:36:32;;;;;;;75.35;39.45;;;9.10;99.90;;;;;;5063560;28;20052;-75
2023/04/29 01:39:25;;;;;;;79.35;38.60;;;9.00;99.90;;;;;;5063818;28;20025;-74
2023/04/29 01:42:00;;;;;;;70.63;38.03;;;9.00;99.90;;;;;;5063779;28;20041;-73
2023/04/29 01:44:28;;;;;;;75.80;38.00;;;9.00;99.90;;;;;;5063926;28;20092;-73
2023/04/29 01:46:55;;;;;;;72.78;36.72;;;9.00;99.90;;;;;;5063816;28;20049;-74
2023/04/29 01:49:24;;;;;;;81.45;38.97;;;8.90;99.90;;;;;;5061124;28;20033;-74
2023/04/29 01:51:51;;;;;;;69.80;37.83;;;8.90;99.90;;;;;;5060638;28;20041;-73
2023/04/29 01:54:17;;;;;;;75.95;39.45;;;8.90;99.90;;;;;;5062234;28;20021;-74
2023/04/29 01:56:43;;;;;;;78.70;39.80;;;8.80;99.90;;;;;;5060954;28;20025;-73
2023/04/29 01:59:08;;;;;;;76.70;39.15;;;8.80;99.90;;;;;;5061493;28;20032;-71
2023/04/29 02:01:34;;;;;;;71.35;38.25;;;8.80;99.90;;;;;;5061006;28;20029;-72
2023/04/29 02:04:00;;;;;;;73.90;37.30;;;8.80;99.90;;;;;;5061191;28;20025;-71
2023/04/29 02:06:25;;;;;;;69.63;37.47;;;8.80;99.90;;;;;;5060701;28;20037;-71
2023/04/29 02:08:51;;;;;;;63.22;35.38;;;8.80;99.90;;;;;;5060580;28;20130;-73
2023/04/29 02:11:17;;;;;;;73.28;37.00;;;8.70;99.90;;;;;;5060582;28;20035;-71
2023/04/29 02:13:42;;;;;;;63.25;34.95;;;8.70;99.90;;;;;;5062644;28;20037;-72
2023/04/29 02:16:12;;;;;;;74.07;36.53;;;8.70;99.90;;;;;;5062330;28;20013;-72
2023/04/29 02:18:38;;;;;;;74.82;36.55;;;8.70;99.90;;;;;;5061446;28;20020;-72
2023/04/29 02:21:04;;;;;;;71.60;35.50;;;8.70;99.90;;;;;;5060028;28;20021;-72
2023/04/29 02:23:30;;;;;;;74.00;36.83;;;8.70;99.90;;;;;;5062194;28;20032;-73
2023/04/29 02:25:56;;;;;;;68.43;34.50;;;8.70;99.90;;;;;;5061465;28;20049;-72
2023/04/29 02:28:24;;;;;;;67.70;34.67;;;8.70;99.90;;;;;;5061683;28;20029;-73
2023/04/29 02:30:50;;;;;;;70.72;35.08;;;8.70;99.90;;;;;;5062183;28;20029;-73
2023/04/29 02:33:17;;;;;;;67.38;34.78;;;8.70;99.90;;;;;;5060470;28;20032;-74
2023/04/29 02:35:43;;;;;;;70.25;35.58;;;8.70;99.90;;;;;;5061136;28;20029;-72
2023/04/29 02:38:09;;;;;;;67.28;35.03;;;8.70;99.90;;;;;;5059537;28;20033;-72
2023/04/29 02:40:39;;;;;;;73.93;36.25;;;8.70;99.90;;;;;;5060830;28;20029;-73
2023/04/29 02:43:05;;;;;;;75.22;34.92;;;8.70;99.90;;;;;;5061573;28;20037;-73
2023/04/29 02:45:30;;;;;;;67.35;34.38;;;8.70;99.90;;;;;;5061239;28;20045;-74
2023/04/29 02:47:56;;;;;;;66.88;35.00;;;8.70;99.90;;;;;;5061584;28;20390;-74
2023/04/29 02:50:22;;;;;;;74.97;35.50;;;8.70;99.90;;;;;;5060586;28;20036;-74
2023/04/29 02:52:47;;;;;;;69.07;35.50;;;8.70;99.90;;;;;;5061779;28;20052;-74
2023/04/29 02:55:13;;;;;;;67.57;35.47;;;8.70;99.90;;;;;;5060421;28;20020;-73
2023/04/29 02:57:40;;;;;;;67.15;35.35;;;8.70;99.90;;;;;;5059760;28;20028;-73
2023/04/29 03:00:06;;;;;;;74.38;36.33;;;8.70;99.90;;;;;;5061421;28;20017;-73
2023/04/29 03:02:31;;;;;;;70.40;35.53;;;8.70;99.90;;;;;;5060895;28;20029;-72
2023/04/29 03:04:57;;;;;;;69.00;35.63;;;8.70;99.90;;;;;;5061509;28;20017;-73
2023/04/29 03:07:22;;;;;;;63.83;34.15;;;8.70;99.90;;;;;;5061063;28;20072;-73
2023/04/29 03:09:48;;;;;;;68.63;35.10;;;8.70;99.90;;;;;;5058913;28;20020;-72
2023/04/29 03:12:15;;;;;;;69.78;35.63;;;8.70;99.90;;;;;;5060007;28;20032;-73
2023/04/29 03:14:41;;;;;;;74.43;33.88;;;8.70;99.90;;;;;;5060280;28;20044;-72
2023/04/29 03:17:07;;;;;;;76.35;35.05;;;8.70;99.90;;;;;;5058150;28;20033;-74
2023/04/29 03:19:32;;;;;;;70.80;35.90;;;8.70;99.90;;;;;;5059745;28;20025;-72
2023/04/29 03:21:58;;;;;;;74.55;36.53;;;8.70;99.90;;;;;;5059467;28;20100;-73
2023/04/29 03:24:23;;;;;;;67.75;34.90;;;8.70;99.90;;;;;;5060968;28;20044;-73
2023/04/29 03:26:49;;;;;;;78.43;37.13;;;8.70;99.90;;;;;;5061270;28;20064;-73
2023/04/29 03:29:14;;;;;;;72.75;35.97;;;8.70;99.90;;;;;;5060742;28;20021;-73
2023/04/29 03:31:40;;;;;;;67.22;35.72;;;8.70;99.90;;;;;;5060943;28;20039;-74
2023/04/29 03:34:06;;;;;;;68.93;36.20;;;8.60;99.90;;;;;;5060304;28;20115;-74
2023/04/29 03:36:31;;;;;;;64.60;35.72;;;8.60;99.90;;;;;;5060103;28;20903;-74
2023/04/29 03:38:57;;;;;;;77.10;37.03;;;8.60;99.90;;;;;;5060908;28;20021;-73
2023/04/29 03:41:23;;;;;;;72.93;36.13;;;8.60;99.90;;;;;;5061006;28;20104;-72
2023/04/29 03:43:49;;;;;;;77.90;37.55;;;8.60;99.90;;;;;;5060605;28;20021;-75
2023/04/29 03:46:14;;;;;;;76.78;38.08;;;8.50;99.90;;;;;;5060168;28;20087;-73
2023/04/29 03:48:40;;;;;;;68.57;36.65;;;8.50;99.90;;;;;;5060043;28;20017;-73
2023/04/29 03:51:06;;;;;;;66.88;37.40;;;8.50;99.90;;;;;;5058783;28;20024;-74
2023/04/29 03:53:32;;;;;;;88.88;39.75;;;8.50;99.90;;;;;;5059347;28;20025;-73
2023/04/29 03:55:58;;;;;;;75.05;37.55;;;8.50;99.90;;;;;;5060008;28;20021;-74
2023/04/29 03:58:23;;;;;;;78.65;39.10;;;8.40;99.90;;;;;;5059057;28;20029;-74
2023/04/29 04:00:49;;;;;;;81.43;39.38;;;8.40;99.90;;;;;;5061125;28;20513;-73
2023/04/29 04:03:14;;;;;;;82.65;39.92;;;8.40;99.90;;;;;;5060151;28;20040;-74
2023/04/29 04:05:40;;;;;;;77.10;38.22;;;8.40;99.90;;;;;;5059095;28;20052;-74
2023/04/29 04:08:05;;;;;;;82.45;40.20;;;8.30;99.90;;;;;;5060023;28;20045;-73
2023/04/29 04:10:31;;;;;;;83.32;41.67;;;8.30;99.90;;;;;;5058311;28;20029;-72
2023/04/29 04:12:56;;;;;;;83.32;40.03;;;8.30;99.90;;;;;;5060262;28;20017;-71
2023/04/29 04:15:22;;;;;;;80.95;41.17;;;8.30;99.90;;;;;;5061380;28;20033;-71
2023/04/29 04:17:48;;;;;;;92.95;42.60;;;8.20;99.90;;;;;;5060822;28;20029;-72
2023/04/29 04:20:14;;;;;;;99.90;44.08;;;8.20;99.90;;;;;;5060911;28;20021;-72
2023/04/29 04:22:40;;;;;;;76.88;40.30;;;8.20;99.90;;;;;;5061006;28;20021;-72
2023/04/29 04:25:06;;;;;;;81.80;41.38;;;8.20;99.90;;;;;;5061104;28;20036;-71
2023/04/29 04:27:31;;;;;;;78.95;40.65;;;8.20;99.90;;;;;;5060476;28;20425;-71
2023/04/29 04:29:57;;;;;;;83.38;42.67;;;8.20;99.90;;;;;;5059411;28;20028;-73
2023/04/29 04:32:23;;;;;;;84.68;41.50;;;8.20;99.90;;;;;;5059503;28;20024;-71
2023/04/29 04:34:49;;;;;;;84.45;41.80;;;8.10;99.90;;;;;;5060659;28;20025;-74
2023/04/29 04:37:15;;;;;;;92.32;44.20;;;8.10;99.90;;;;;;5061004;28;21049;-70
2023/04/29 04:39:41;;;;;;;94.63;45.13;;;8.20;99.90;;;;;;5060633;28;20029;-70
2023/04/29 04:42:06;;;;;;;97.03;44.63;;;8.20;99.90;;;;;;5060707;28;20029;-72
2023/04/29 04:44:32;;;;;;;84.55;42.70;;;8.10;99.90;;;;;;5060871;28;20029;-73
2023/04/29 04:47:00;;;;;;;86.72;41.92;;;8.10;99.90;;;;;;5058848;28;20049;-72
2023/04/29 04:49:26;;;;;;;80.32;42.53;;;8.20;99.90;;;;;;5060000;28;20029;-72
2023/04/29 04:51:52;;;;;;;89.80;42.85;;;8.20;99.90;;;;;;5060896;28;20025;-72
2023/04/29 04:54:18;;;;;;;94.30;42.92;;;8.20;99.90;;;;;;5060652;28;20021;-74
2023/04/29 04:56:43;;;;;;;89.88;43.35;;;8.20;99.90;;;;;;5060053;28;20025;-72
2023/04/29 04:59:09;;;;;;;89.07;44.00;;;8.20;99.90;;;;;;5059314;28;20032;-72
2023/04/29 05:01:35;;;;;;;97.35;44.97;;;8.20;99.90;;;;;;5060153;28;20021;-71
2023/04/29 05:04:01;;;;;;;89.03;43.60;;;8.30;99.90;;;;;;5058883;28;20108;-72
2023/04/29 05:06:27;;;;;;;85.50;42.90;;;8.30;99.90;;;;;;5059080;28;20064;-72
2023/04/29 05:08:52;;;;;;;87.15;42.35;;;8.30;99.90;;;;;;5060535;28;20040;-70
2023/04/29 05:11:19;;;;;;;85.75;42.03;;;8.30;99.90;;;;;;5060769;28;20029;-74
2023/04/29 05:13:45;;;;;;;89.25;43.13;;;8.30;99.90;;;;;;5060190;28;20067;-69
2023/04/29 05:16:11;;;;;;;87.97;41.60;;;8.30;99.90;;;;;;5059319;28;20029;-71
2023/04/29 05:18:37;;;;;;;84.60;41.95;;;8.40;99.90;;;;;;5060587;28;20104;-69
2023/04/29 05:21:02;;;;;;;80.47;40.33;;;8.40;99.90;;;;;;5060412;28;20029;-70
2023/04/29 05:23:28;;;;;;;84.72;39.72;;;8.40;99.90;;;;;;5058936;28;20025;-71
2023/04/29 05:25:54;;;;;;;74.40;40.30;;;8.50;99.90;;;;;;5060958;28;20029;-69
2023/04/29 05:28:19;;;;;;;79.85;40.45;;;8.60;99.90;;;;;;5062787;28;20108;-70
2023/04/29 05:30:45;;;;;;;72.07;38.97;;;8.50;99.90;;;;;;5064018;28;20020;-71
2023/04/29 05:33:11;;;;;;;76.18;39.30;;;8.50;99.90;;;;;;5064596;28;20171;-69
2023/04/29 05:35:36;;;;;;;72.97;38.80;;;8.50;99.90;;;;;;5063980;28;20032;-70
2023/04/29 05:38:02;;;;;;;83.57;38.85;;;8.50;99.90;;;;;;5062460;28;20036;-71
2023/04/29 05:40:28;;;;;;;76.57;38.05;;;8.50;99.90;;;;;;5062187;28;20025;-70
2023/04/29 05:42:54;;;;;;;75.22;38.53;;;8.60;99.90;;;;;;5063570;28;20075;-72
2023/04/29 05:45:19;;;;;;;79.97;37.72;;;8.60;99.90;;;;;;5063001;28;20104;-70
2023/04/29 05:47:45;;;;;;;69.28;37.35;;;8.60;99.90;;;;;;5063745;28;20045;-71
2023/04/29 05:50:11;;;;;;;69.75;37.03;;;8.60;99.90;;;;;;5061508;28;20029;-72
2023/04/29 05:52:37;;;;;;;74.60;38.00;;;8.60;99.90;;;;;;5063543;28;20021;-71
2023/04/29 05:55:03;;;;;;;76.30;37.85;;;8.60;99.90;;;;;;5057814;28;20036;-70
2023/04/29 05:57:29;;;;;;;69.28;37.30;;;8.60;99.90;;;;;;5059340;28;20033;-68
2023/04/29 05:59:54;;;;;;;67.18;36.88;;;8.60;99.90;;;;;;5061400;28;20048;-70
2023/04/29 06:02:20;;;;;;;76.38;38.47;;;8.60;99.90;;;;;;5057301;28;20082;-70
2023/04/29 06:04:48;;;;;;;76.70;40.60;;;8.70;99.90;;;;;;5061253;28;20064;-70
2023/04/29 06:07:14;;;;;;;75.70;38.28;;;8.70;99.90;;;;;;5060881;28;20128;-70
2023/04/29 06:09:40;;;;;;;81.90;39.60;;;8.70;99.90;;;;;;5061988;28;20067;-70
2023/04/29 06:12:05;;;;;;;79.13;39.75;;;8.70;99.90;;;;;;5062920;28;20128;-68
2023/04/29 06:14:31;;;;;;;78.70;40.70;;;8.80;99.90;;;;;;5058983;28;20031;-68
2023/04/29 06:16:56;;;;;;;78.13;39.25;;;8.80;99.90;;;;;;5063220;28;20043;-68
2023/04/29 06:19:23;;;;;;;75.97;38.75;;;8.80;99.90;;;;;;5063005;28;20035;-71
2023/04/29 06:21:49;;;;;;;76.25;39.70;;;8.80;99.90;;;;;;5060869;28;20033;-68
2023/04/29 06:24:15;;;;;;;73.70;38.42;;;8.80;99.90;;;;;;5062379;28;20029;-68
2023/04/29 06:26:40;;;;;;;74.53;38.65;;;8.80;99.90;;;;;;5061799;28;20722;-72
2023/04/29 06:29:06;;;;;;;74.15;38.30;;;8.80;99.90;;;;;;5060327;28;20033;-68
2023/04/29 06:31:32;;;;;;;70.50;36.92;;;8.90;99.90;;;;;;5062377;28;20025;-72
2023/04/29 06:33:57;;;;;;;76.70;36.72;;;8.90;99.90;;;;;;5061176;28;20102;-71
2023/04/29 06:36:23;;;;;;;71.97;37.47;;;8.90;99.90;;;;;;5059884;28;20020;-71
2023/04/29 06:38:49;;;;;;;70.63;36.60;;;8.90;99.90;;;;;;5063030;28;20079;-69
2023/04/29 06:41:14;;;;;;;79.30;38.28;;;9.00;99.90;;;;;;5062852;28;20510;-68
2023/04/29 06:43:42;;;;;;;70.38;36.72;;;9.00;99.90;;;;;;5061712;28;20049;-68
2023/04/29 06:46:07;;;;;;;74.22;35.30;;;9.00;99.90;;;;;;5062588;28;20048;-68
2023/04/29 06:48:33;;;;;;;65.53;35.08;;;9.10;99.90;;;;;;5062605;28;20377;-69
2023/04/29 06:50:59;;;;;;;70.55;33.47;;;9.10;99.90;;;;;;5063294;28;20120;-69
2023/04/29 06:53:24;;;;;;;71.03;34.83;;;9.10;99.90;;;;;;5063288;28;20024;-71
2023/04/29 06:55:50;;;;;;;66.95;32.55;;;9.20;99.90;;;;;;5060999;28;20112;-70
2023/04/29 06:58:17;;;;;;;57.83;30.10;;;9.20;99.90;;;;;;5063296;28;20048;-70
2023/04/29 07:00:44;;;;;;;61.70;30.95;;;9.20;99.90;;;;;;5062819;28;20025;-68
2023/04/29 07:03:10;;;;;;;55.35;29.15;;;9.20;99.90;;;;;;5062692;28;20040;-67
2023/04/29 07:05:39;;;;;;;55.17;30.13;;;9.20;99.90;;;;;;5062194;28;20025;-69
2023/04/29 07:08:05;;;;;;;57.03;29.83;;;9.30;99.90;;;;;;5047612;28;20041;-71
2023/04/29 07:10:31;;;;;;;54.65;27.05;;;9.30;99.90;;;;;;5057157;28;20036;-67
2023/04/29 07:12:58;;;;;;;58.33;28.27;;;9.40;99.90;;;;;;5059481;28;20036;-70
2023/04/29 07:15:23;;;;;;;52.83;26.75;;;9.40;99.90;;;;;;5059835;28;20552;-72
2023/04/29 07:17:49;;;;;;;56.92;27.23;;;9.50;99.90;;;;;;5062281;28;20052;-70
2023/04/29 07:20:15;;;;;;;47.50;25.80;;;9.60;99.90;;;;;;5061928;28;20025;-68
2023/04/29 07:22:40;;;;;;;46.78;25.65;;;9.70;99.90;;;;;;5061923;28;20021;-70
2023/04/29 07:25:06;;;;;;;50.47;23.05;;;9.80;99.90;;;;;;5061505;28;20474;-70
2023/04/29 07:27:34;;;;;;;40.33;22.55;;;9.80;99.90;;;;;;5061915;28;20036;-69
2023/04/29 07:30:00;;;;;;;41.65;22.63;;;9.90;99.90;;;;;;5059091;28;20059;-70
2023/04/29 07:32:26;;;;;;;40.58;21.67;;;9.90;99.90;;;;;;5058437;28;20814;-68
2023/04/29 07:34:51;;;;;;;41.22;20.95;;;10.00;99.90;;;;;;5062234;28;20032;-70
2023/04/29 07:37:17;;;;;;;41.63;21.75;;;10.00;99.90;;;;;;5059544;28;20040;-68
2023/04/29 07:39:43;;;;;;;45.10;21.95;;;10.00;99.90;;;;;;5061717;28;20063;-69
2023/04/29 07:42:08;;;;;;;39.50;21.45;;;10.10;99.90;;;;;;5059382;28;20051;-70
2023/04/29 07:44:35;;;;;;;43.83;20.70;;;10.10;99.90;;;;;;5059832;28;20031;-68
2023/04/29 07:47:00;;;;;;;42.80;20.73;;;10.20;99.90;;;;;;5058626;28;20081;-69
2023/04/29 07:49:26;;;;;;;38.20;19.92;;;10.30;99.90;;;;;;5059730;28;20375;-67
2023/04/29 07:51:52;;;;;;;34.28;19.10;;;10.40;99.90;;;;;;5058703;28;20040;-70
2023/04/29 07:54:21;;;;;;;37.10;18.90;;;10.40;99.90;;;;;;5056969;28;20032;-69
2023/04/29 07:56:47;;;;;;;35.33;19.17;;;10.50;99.90;;;;;;5058663;28;20028;-69
2023/04/29 07:59:13;;;;;;;34.88;18.85;;;10.60;99.90;;;;;;5060299;28;20033;-67
2023/04/29 08:01:40;;;;;;;38.30;19.13;;;10.70;99.90;;;;;;5061453;28;20056;-69
2023/04/29 08:04:06;;;;;;;32.58;18.20;;;10.80;99.90;;;;;;5061227;28;20161;-67
2023/04/29 08:06:32;;;;;;;32.55;17.15;;;10.80;99.90;;;;;;5061664;28;20393;-70
2023/04/29 08:08:58;;;;;;;37.53;16.92;;;10.80;99.90;;;;;;5061699;28;20037;-70
2023/04/29 08:11:25;;;;;;;30.98;16.08;;;10.80;99.90;;;;;;5058159;28;20025;-68
2023/04/29 08:13:51;;;;;;;31.85;16.90;;;10.80;99.90;;;;;;5058482;28;20021;-68
2023/04/29 08:16:17;;;;;;;39.13;17.90;;;11.00;99.90;;;;;;5061231;28;20063;-68
2023/04/29 08:18:43;;;;;;;32.40;17.42;;;11.10;99.90;;;;;;5061563;28;20029;-68
2023/04/29 08:21:10;;;;;;;32.97;18.17;;;11.20;99.90;;;;;;5059603;28;20040;-66
2023/04/29 08:23:37;;;;;;;29.45;15.90;;;11.30;99.90;;;;;;5060764;28;20021;-67
2023/04/29 08:26:03;;;;;;;32.33;17.88;;;11.40;99.90;;;;;;5058726;28;20052;-69
2023/04/29 08:28:28;;;;;;;33.63;17.13;;;11.50;99.90;;;;;;5058376;28;20025;-68
2023/04/29 08:30:54;;;;;;;29.60;15.60;;;11.60;99.90;;;;;;5057463;28;20036;-68
2023/04/29 08:33:20;;;;;;;24.02;14.20;;;11.70;99.90;;;;;;5060794;28;20023;-68
2023/04/29 08:35:45;;;;;;;26.80;15.02;;;11.80;99.90;;;;;;5059856;28;20047;-68
2023/04/29 08:38:11;;;;;;;25.38;14.13;;;11.90;99.90;;;;;;5058583;28;20137;-69
2023/04/29 08:40:45;;;;;;;27.33;15.20;;;12.00;99.90;;;;;;5059068;28;20033;-68
2023/04/29 08:43:14;;;;;;;25.67;14.73;;;12.00;99.90;;;;;;5059516;28;20032;-69
2023/04/29 08:45:42;;;;;;;25.08;14.52;;;12.00;99.90;;;;;;5058466;28;20052;-69
2023/04/29 08:48:07;;;;;;;30.25;14.90;;;12.10;99.90;;;;;;5060128;28;20041;-68
2023/04/29 08:50:41;;;;;;;25.95;14.57;;;12.20;99.90;;;;;;5058870;28;20043;-68
2023/04/29 08:53:08;;;;;;;29.40;14.60;;;12.40;99.90;;;;;;5058861;28;20864;-67
2023/04/29 08:55:44;;;;;;;25.27;14.38;;;12.70;99.90;;;;;;5060337;28;20033;-68
2023/04/29 08:58:12;;;;;;;24.90;14.38;;;12.90;99.90;;;;;;5058633;28;20021;-67
2023/04/29 09:00:39;;;;;;;24.20;13.60;;;13.10;99.90;;;;;;5062414;28;20034;-67
2023/04/29 09:03:31;;;;;;;25.33;14.75;;;13.10;99.90;;;;;;5065057;28;20040;-68
2023/04/29 09:06:00;;;;;;;24.67;14.68;;;13.30;99.90;;;;;;5064458;28;20055;-67
2023/04/29 09:08:26;;;;;;;22.45;14.27;;;13.50;99.90;;;;;;5062787;28;20081;-67
2023/04/29 09:10:53;;;;;;;19.65;12.32;;;13.70;99.90;;;;;;5057721;28;20013;-67
2023/04/29 09:13:26;;;;;;;22.15;13.27;;;13.80;99.90;;;;;;5061312;28;20394;-68
2023/04/29 09:15:52;;;;;;;26.77;13.55;;;13.80;99.90;;;;;;5061854;28;20025;-69
2023/04/29 09:18:44;;;;;;;20.90;12.43;;;13.90;99.90;;;;;;5061198;28;20059;-68
2023/04/29 09:21:22;;;;;;;23.00;13.40;;;14.20;99.90;;;;;;5062487;28;20052;-69
2023/04/29 09:23:54;;;;;;;19.67;12.65;;;14.40;99.90;;;;;;5062726;28;20017;-70
2023/04/29 09:26:21;;;;;;;22.40;13.07;;;14.30;99.90;;;;;;5057723;28;20056;-69
2023/04/29 09:28:48;;;;;;;22.55;12.35;;;14.30;99.90;;;;;;5061658;28;20032;-70
2023/04/29 09:31:14;;;;;;;24.08;12.68;;;14.40;99.90;;;;;;5056900;28;20029;-70
2023/04/29 09:33:51;;;;;;;23.13;12.82;;;14.30;99.90;;;;;;5054855;28;20036;-70
2023/04/29 09:36:40;;;;;;;21.98;12.75;;;14.50;99.90;;;;;;5059776;28;20079;-69
2023/04/29 09:39:10;;;;;;;22.38;12.18;;;14.60;99.90;;;;;;5063053;28;20051;-70
2023/04/29 09:41:51;;;;;;;20.48;11.45;;;14.70;99.90;;;;;;5061358;28;20047;-69
2023/04/29 09:44:18;;;;;;;22.45;11.68;;;14.80;99.90;;;;;;5062783;28;20048;-71
2023/04/29 09:46:53;;;;;;;25.40;11.80;;;14.80;99.90;;;;;;5062673;28;20049;-71
2023/04/29 09:49:26;;;;;;;17.52;11.02;;;14.90;99.90;;;;;;5063224;28;20027;-71
2023/04/29 09:52:03;;;;;;;19.58;12.77;;;15.20;99.90;;;;;;5061109;28;20025;-70
2023/04/29 09:54:31;;;;;;;20.33;11.23;;;15.40;99.90;;;;;;5062550;28;20120;-70
2023/04/29 09:56:59;;;;;;;19.10;11.38;;;15.50;99.90;;;;;;5061022;28;20036;-68
2023/04/29 09:59:25;;;;;;;19.35;11.48;;;15.60;99.90;;;;;;5062408;28;20021;-69
2023/04/29 10:01:56;;;;;;;27.38;11.77;;;15.60;99.90;;;;;;5063752;28;20036;-70
2023/04/29 10:04:24;;;;;;;20.15;12.05;;;15.70;99.90;;;;;;5061922;28;20013;-71
2023/04/29 10:06:52;;;;;;;17.38;11.45;;;15.50;99.90;;;;;;5056802;28;20500;-71
2023/04/29 10:09:19;;;;;;;17.77;11.70;;;15.60;99.90;;;;;;5061190;28;20069;-69
2023/04/29 10:11:46;;;;;;;20.10;12.90;;;15.60;99.90;;;;;;5062096;28;20021;-69
2023/04/29 10:14:15;;;;;;;24.02;12.70;;;15.30;99.90;;;;;;5063823;28;20055;-69
2023/04/29 10:16:45;;;;;;;19.40;11.57;;;15.30;99.90;;;;;;5062648;28;21382;-67
2023/04/29 10:19:14;;;;;;;20.63;10.98;;;15.30;99.90;;;;;;5062037;28;20039;-68
2023/04/29 10:21:40;;;;;;;17.95;10.43;;;15.50;99.90;;;;;;5063565;28;20036;-68
2023/04/29 10:24:12;;;;;;;16.88;10.55;;;15.60;99.90;;;;;;5062109;28;20505;-72
2023/04/29 10:26:38;;;;;;;15.40;10.35;;;15.70;99.90;;;;;;5062078;28;20044;-69
2023/04/29 10:29:07;;;;;;;15.32;9.93;;;15.70;99.90;;;;;;5058764;28;20048;-68
2023/04/29 10:31:34;;;;;;;17.38;10.60;;;15.80;99.90;;;;;;5056553;28;20737;-68
2023/04/29 10:34:00;;;;;;;18.08;10.55;;;15.90;99.90;;;;;;5062709;28;20021;-65
2023/04/29 10:36:29;;;;;;;13.93;9.00;;;16.00;99.90;;;;;;5061302;28;20013;-67
2023/04/29 10:38:58;;;;;;;14.73;9.60;;;15.90;99.90;;;;;;5060956;28;20107;-67
2023/04/29 10:41:35;;;;;;;16.35;9.25;;;15.80;99.90;;;;;;5059777;28;20688;-69
2023/04/29 10:44:03;;;;;;;14.65;8.70;;;15.70;99.90;;;;;;5061370;28;20035;-67
2023/04/29 10:46:28;;;;;;;13.02;9.05;;;15.80;99.90;;;;;;5060585;28;20044;-66
2023/04/29 10:49:05;;;;;;;14.05;8.20;;;15.90;99.90;;;;;;5061710;28;20039;-66
2023/04/29 10:51:38;;;;;;;15.02;8.02;;;16.00;99.90;;;;;;5059994;28;20029;-65
2023/04/29 10:54:20;;;;;;;16.88;8.68;;;16.00;99.90;;;;;;5062176;28;20017;-67
2023/04/29 10:56:51;;;;;;;14.82;9.07;;;16.00;99.90;;;;;;5061420;28;20029;-68
2023/04/29 10:59:21;;;;;;;13.93;8.48;;;16.20;99.90;;;;;;5061259;28;20035;-71
2023/04/29 11:01:52;;;;;;;14.55;8.90;;;16.30;99.90;;;;;;5061041;28;20017;-68
2023/04/29 11:04:20;;;;;;;15.63;8.25;;;16.50;99.90;;;;;;5060837;28;20029;-69
2023/04/29 11:06:51;;;;;;;17.60;8.73;;;16.60;99.90;;;;;;5062593;28;20047;-66
2023/04/29 11:09:23;;;;;;;15.63;8.07;;;16.60;99.90;;;;;;5062470;28;20021;-67
2023/04/29 11:11:56;;;;;;;13.57;7.65;;;16.60;99.90;;;;;;5056626;28;20782;-68
2023/04/29 11:14:42;;;;;;;12.30;7.45;;;16.60;99.90;;;;;;5059182;28;20029;-67
2023/04/29 11:17:11;;;;;;;12.80;7.13;;;16.70;99.90;;;;;;5060241;28;20115;-67
2023/04/29 11:19:49;;;;;;;13.75;7.40;;;16.70;99.90;;;;;;5060291;28;20037;-67
2023/04/29 11:22:17;;;;;;;12.85;7.20;;;16.90;99.90;;;;;;5060162;28;21008;-69
2023/04/29 11:24:49;;;;;;;12.52;6.50;;;17.00;99.90;;;;;;5060772;28;20028;-67
2023/04/29 11:27:16;;;;;;;14.63;6.85;;;17.10;99.90;;;;;;5060974;28;20104;-67
2023/04/29 11:29:43;;;;;;;11.02;6.60;;;17.00;99.90;;;;;;5062622;28;20706;-68
2023/04/29 11:32:09;;;;;;;12.35;6.30;;;16.90;99.90;;;;;;5062227;28;20497;-68
2023/04/29 11:34:34;;;;;;;12.60;6.45;;;16.80;99.90;;;;;;5061939;28;20025;-68
2023/04/29 11:37:00;;;;;;;13.23;6.03;;;16.90;99.90;;;;;;5062244;28;20033;-66
2023/04/29 11:39:26;;;;;;;14.48;6.50;;;16.80;99.90;;;;;;5062199;28;20032;-67
2023/04/29 11:42:04;;;;;;;12.60;6.10;;;16.70;99.90;;;;;;5061578;28;20089;-67
2023/04/29 11:44:29;;;;;;;13.18;6.13;;;16.60;99.90;;;;;;5062105;28;20013;-68
2023/04/29 11:47:07;;;;;;;13.88;5.80;;;16.60;99.90;;;;;;5061799;28;20059;-68
2023/04/29 11:49:34;;;;;;;14.20;6.35;;;16.60;99.90;;;;;;5061635;28;20042;-69
2023/04/29 11:52:00;;;;;;;11.77;6.25;;;16.80;99.90;;;;;;5062217;28;20021;-66
2023/04/29 11:54:26;;;;;;;9.18;5.57;;;17.10;99.90;;;;;;5062042;28;20028;-69
2023/04/29 11:56:54;;;;;;;11.85;5.97;;;17.10;99.90;;;;;;5061704;28;20029;-67
2023/04/29 11:59:20;;;;;;;13.43;6.10;;;17.10;99.90;;;;;;5062208;28;20047;-68
2023/04/29 12:01:45;;;;;;;11.75;6.20;;;17.20;99.90;;;;;;5060725;28;20029;-67
2023/04/29 12:04:11;;;;;;;10.95;6.20;;;17.40;99.90;;;;;;5056828;28;20029;-66
2023/04/29 12:06:37;;;;;;;12.02;6.13;;;17.50;99.90;;;;;;5060809;28;20060;-68
2023/04/29 12:09:03;;;;;;;12.85;7.15;;;17.60;99.90;;;;;;5059841;28;20036;-69
2023/04/29 12:11:29;;;;;;;12.55;6.68;;;17.70;99.90;;;;;;5056466;28;20115;-68
2023/04/29 12:13:56;;;;;;;15.63;7.47;;;17.70;99.90;;;;;;5059711;28;20068;-68
2023/04/29 12:16:22;;;;;;;13.18;7.15;;;17.80;99.90;;;;;;5058059;28;20025;-68
2023/04/29 12:18:50;;;;;;;12.27;7.00;;;17.80;99.90;;;;;;5059221;28;20101;-69
2023/04/29 12:21:16;;;;;;;13.48;7.15;;;18.00;99.90;;;;;;5061221;28;20048;-67
2023/04/29 12:23:42;;;;;;;12.27;6.68;;;17.80;99.90;;;;;;5059928;28;20025;-66
2023/04/29 12:26:08;;;;;;;11.00;6.57;;;17.80;99.90;;;;;;5061598;28;20075;-68
2023/04/29 12:28:34;;;;;;;13.07;7.22;;;17.90;99.90;;;;;;5060178;28;20021;-69
2023/04/29 12:31:00;;;;;;;14.30;7.32;;;17.90;99.90;;;;;;5061332;28;20452;-69
2023/04/29 12:33:28;;;;;;;10.25;6.53;;;18.00;99.90;;;;;;5060603;28;20017;-70
2023/04/29 12:35:56;;;;;;;15.57;6.93;;;18.30;99.90;;;;;;5064684;28;20024;-68